Time;durP1;ratioP1;P1;durP2;ratioP2;P2;SDS_P1;SDS_P2;PMS_P1;PMS_P2;Temp;Humidity;BMP_temperature;BMP_pressure;BME280_temperature;BME280_humidity;BME280_pressure;Samples;Min_cycle;Max_cycle;Signal;HPM_P1;HPM_P2
2022/01/07 00:02:17;;;;;;;;;7.50;6.00;;;;;5.77;81.98;101160.41;4977739;28;45857;-67
2022/01/07 00:04:42;;;;;;;;;9.25;8.00;;;;;5.72;82.22;101161.25;4978076;28;45496;-68
2022/01/07 00:07:09;;;;;;;;;8.00;6.50;;;;;5.78;82.24;101149.06;4978915;28;45482;-68
2022/01/07 00:09:36;;;;;;;;;8.00;6.50;;;;;5.73;81.77;101142.09;4976960;28;45309;-68
2022/01/07 00:12:02;;;;;;;;;9.75;6.75;;;;;5.73;82.11;101154.28;4978950;28;45322;-67
2022/01/07 00:14:28;;;;;;;;;8.50;6.25;;;;;5.66;82.66;101134.22;4978782;28;45316;-67
2022/01/07 00:16:53;;;;;;;;;9.50;7.00;;;;;5.68;83.28;101143.81;4977800;28;45396;-67
2022/01/07 00:19:19;;;;;;;;;9.00;7.25;;;;;5.66;83.06;101144.69;4978940;28;45464;-67
2022/01/07 00:21:45;;;;;;;;;8.25;7.00;;;;;5.62;83.40;101122.03;4978764;28;45398;-67
2022/01/07 00:24:10;;;;;;;;;4.00;3.00;;;;;5.61;83.89;101134.22;4978564;28;45338;-68
2022/01/07 00:26:35;;;;;;;;;7.00;5.75;;;;;5.61;84.24;101133.34;4977789;28;45312;-66
2022/01/07 00:29:01;;;;;;;;;8.00;6.75;;;;;5.61;84.83;101113.31;4978773;28;45841;-67
2022/01/07 00:31:26;;;;;;;;;7.75;5.75;;;;;5.63;84.45;101142.91;4978683;28;45375;-67
2022/01/07 00:33:52;;;;;;;;;7.00;7.00;;;;;5.62;84.75;101130.75;4978079;28;46309;-68
2022/01/07 00:36:17;;;;;;;;;6.50;6.50;;;;;5.47;85.51;101108.03;4978435;28;45336;-69
2022/01/07 00:38:43;;;;;;;;;7.50;6.50;;;;;5.46;85.73;101105.41;4978408;28;45404;-68
2022/01/07 00:41:08;;;;;;;;;7.25;5.25;;;;;5.51;86.00;101120.25;4978617;28;45487;-67
2022/01/07 00:43:33;;;;;;;;;8.00;7.00;;;;;5.54;85.47;101114.16;4978505;28;45417;-67
2022/01/07 00:45:59;;;;;;;;;9.75;7.25;;;;;5.55;87.02;101118.53;4978197;28;45297;-67
2022/01/07 00:48:25;;;;;;;;;4.00;4.00;;;;;5.51;86.90;101096.72;4978313;28;45456;-66
2022/01/07 00:50:50;;;;;;;;;7.25;6.75;;;;;5.51;87.28;101095.88;4978612;28;45432;-67
2022/01/07 00:53:16;;;;;;;;;8.00;6.75;;;;;5.52;87.88;101090.66;4978330;28;46510;-67
2022/01/07 00:55:41;;;;;;;;;8.75;7.00;;;;;5.48;88.01;101085.41;4978395;28;45225;-67
2022/01/07 00:58:07;;;;;;;;;7.00;7.00;;;;;5.46;88.66;101072.34;4978281;28;45387;-68
2022/01/07 01:00:32;;;;;;;;;6.00;3.25;;;;;5.38;89.74;101064.47;4978549;28;45367;-69
2022/01/07 01:02:59;;;;;;;;;7.25;7.25;;;;;5.43;89.46;101072.31;4977739;28;45450;-67
2022/01/07 01:05:26;;;;;;;;;9.50;7.75;;;;;5.28;89.47;101043.56;4977880;28;45782;-70
2022/01/07 01:07:53;;;;;;;;;7.00;7.00;;;;;5.39;89.82;101083.66;4978348;28;45264;-70
2022/01/07 01:10:22;;;;;;;;;8.25;5.00;;;;;5.37;91.81;101078.41;4977987;28;45525;-72
2022/01/07 01:12:48;;;;;;;;;7.33;3.67;;;;;5.34;92.82;101072.28;4977729;28;46395;-71
2022/01/07 01:15:20;;;;;;;;;10.25;7.00;;;;;5.33;93.06;101066.22;4977985;28;45330;-72
2022/01/07 01:17:45;;;;;;;;;9.67;7.00;;;;;5.23;93.44;101067.91;4977972;28;45373;-70
2022/01/07 01:20:12;;;;;;;;;7.75;7.75;;;;;5.29;93.56;101085.34;4978185;28;45717;-69
2022/01/07 01:22:38;;;;;;;;;12.00;6.75;;;;;5.21;94.35;101059.22;4977944;28;46414;-68
2022/01/07 01:25:05;;;;;;;;;7.50;6.00;;;;;5.25;93.83;101077.50;4977828;28;45612;-69
2022/01/07 01:27:31;;;;;;;;;7.25;4.75;;;;;5.31;93.92;101078.38;4978021;28;45359;-69
2022/01/07 01:29:56;;;;;;;;;10.75;8.25;;;;;5.27;94.30;101071.41;4977548;28;45514;-68
2022/01/07 01:32:22;;;;;;;;;8.00;7.25;;;;;5.26;94.16;101063.56;4977329;28;45486;-69
2022/01/07 01:34:47;;;;;;;;;10.00;8.00;;;;;5.27;94.50;101060.97;4977679;28;45333;-69
2022/01/07 01:37:13;;;;;;;;;9.00;5.00;;;;;5.23;94.52;101059.22;4977773;28;45450;-69
2022/01/07 01:39:38;;;;;;;;;7.00;7.00;;;;;5.25;95.48;101069.66;4977762;28;45499;-69
2022/01/07 01:42:04;;;;;;;;;7.75;7.75;;;;;5.23;95.35;101062.69;4977373;28;46598;-69
2022/01/07 01:44:30;;;;;;;;;7.25;5.50;;;;;5.29;95.11;101058.38;4977615;28;45510;-69
2022/01/07 01:46:56;;;;;;;;;17.67;15.33;;;;;5.19;94.53;101036.56;4977787;28;45378;-72
2022/01/07 01:49:22;;;;;;;;;7.50;7.00;;;;;5.33;94.42;101047.94;4977574;28;45406;-69
2022/01/07 01:51:48;;;;;;;;;6.25;6.25;;;;;5.33;94.76;101047.03;4977485;28;46246;-69
2022/01/07 01:54:14;;;;;;;;;9.25;7.00;;;;;5.27;94.65;101028.75;4977463;28;45476;-67
2022/01/07 01:56:41;;;;;;;;;8.33;7.33;;;;;5.33;94.52;101026.16;4977774;28;45355;-67
2022/01/07 01:59:07;;;;;;;;;9.00;7.00;;;;;5.35;95.03;101020.09;4977933;28;45626;-67
2022/01/07 02:01:34;;;;;;;;;11.75;8.75;;;;;5.43;95.44;101024.47;4976365;28;45799;-68
2022/01/07 02:03:59;;;;;;;;;8.00;8.00;;;;;5.43;94.60;101017.47;4976764;28;45321;-67
2022/01/07 02:06:24;;;;;;;;;8.50;7.00;;;;;5.37;94.59;101018.38;4977856;28;45422;-66
2022/01/07 02:08:51;;;;;;;;;13.25;7.75;;;;;5.38;94.51;101008.78;4977751;28;45212;-67
2022/01/07 02:11:16;;;;;;;;;11.00;9.00;;;;;5.36;94.36;101010.53;4977198;28;45438;-67
2022/01/07 02:13:42;;;;;;;;;8.25;7.00;;;;;5.35;94.45;101000.94;4977348;28;45189;-67
2022/01/07 02:16:07;;;;;;;;;7.00;7.00;;;;;5.19;94.54;100979.13;4977350;28;45233;-67
2022/01/07 02:18:33;;;;;;;;;6.25;6.25;;;;;5.34;94.03;101009.63;4977717;28;45713;-66
2022/01/07 02:20:59;;;;;;;;;8.50;6.75;;;;;5.43;94.46;101014.00;4977244;28;46874;-67
2022/01/07 02:23:24;;;;;;;;;6.50;6.50;;;;;5.47;94.39;101019.25;4977157;28;45462;-67
2022/01/07 02:25:49;;;;;;;;;6.00;6.00;;;;;5.52;94.43;101027.13;4976459;28;45485;-67
2022/01/07 02:28:15;;;;;;;;;7.00;6.00;;;;;5.39;94.14;100995.72;4977423;28;45408;-66
2022/01/07 02:30:41;;;;;;;;;9.25;6.25;;;;;5.48;94.49;101021.00;4976985;28;45331;-67
2022/01/07 02:33:06;;;;;;;;;9.75;6.00;;;;;5.50;94.18;101014.03;4976694;28;45534;-67
2022/01/07 02:35:34;;;;;;;;;5.25;3.75;;;;;5.58;94.13;101025.38;4977435;28;45316;-67
2022/01/07 02:38:01;;;;;;;;;8.50;7.25;;;;;5.55;94.65;101024.50;4977379;28;45212;-67
2022/01/07 02:40:27;;;;;;;;;6.00;6.00;;;;;5.50;94.87;101013.16;4976871;28;45601;-67
2022/01/07 02:42:53;;;;;;;;;6.00;6.00;;;;;5.59;95.69;101005.34;4977028;28;45462;-67
2022/01/07 02:45:19;;;;;;;;;7.00;6.00;;;;;5.59;96.57;101010.56;4977090;28;45390;-67
2022/01/07 02:47:54;;;;;;;;;3.75;3.00;;;;;5.51;96.98;101000.09;4977286;28;45598;-67
2022/01/07 02:50:33;;;;;;;;;8.25;6.00;;;;;5.54;97.02;101005.31;4977785;28;46683;-67
2022/01/07 02:52:59;;;;;;;;;6.75;5.25;;;;;5.57;96.78;101007.09;4980195;28;45246;-67
2022/01/07 02:55:26;;;;;;;;;8.00;7.25;;;;;5.54;96.63;100994.03;4980143;28;45321;-67
2022/01/07 02:57:51;;;;;;;;;7.25;5.00;;;;;5.51;96.35;100988.78;4980781;28;45451;-67
2022/01/07 03:00:19;;;;;;;;;5.50;5.50;;;;;5.54;96.45;100994.03;4980130;28;45304;-67
2022/01/07 03:02:45;;;;;;;;;7.25;5.50;;;;;5.44;96.39;100981.81;4980244;28;45833;-67
2022/01/07 03:05:11;;;;;;;;;7.75;4.75;;;;;5.53;96.03;101005.31;4980033;28;45314;-67
2022/01/07 03:07:38;;;;;;;;;6.00;6.00;;;;;5.54;96.03;101000.09;4980276;28;45409;-67
2022/01/07 03:10:06;;;;;;;;;7.25;7.25;;;;;5.46;96.35;100978.34;4979809;28;46499;-67
2022/01/07 03:12:31;;;;;;;;;6.25;6.25;;;;;5.52;96.04;100982.72;4980116;28;45252;-67
2022/01/07 03:14:57;;;;;;;;;5.00;4.00;;;;;5.34;95.98;100947.84;4979968;28;45296;-66
2022/01/07 03:17:22;;;;;;;;;5.25;4.00;;;;;5.55;95.68;100974.88;4980258;28;45354;-67
2022/01/07 03:19:47;;;;;;;;;8.00;6.25;;;;;5.62;95.02;100973.13;4979715;28;45377;-67
2022/01/07 03:22:13;;;;;;;;;7.25;7.25;;;;;5.61;95.43;100969.66;4980062;28;45250;-67
2022/01/07 03:24:38;;;;;;;;;7.50;7.00;;;;;5.63;95.18;100972.28;4979823;28;45487;-66
2022/01/07 03:27:05;;;;;;;;;8.25;7.00;;;;;5.64;95.48;100966.19;4980097;28;45443;-67
2022/01/07 03:29:30;;;;;;;;;4.00;4.00;;;;;5.63;95.34;100959.22;4979628;28;45478;-67
2022/01/07 03:31:56;;;;;;;;;7.50;4.25;;;;;5.50;95.55;100947.88;4979607;28;45308;-67
2022/01/07 03:34:21;;;;;;;;;9.25;7.00;;;;;5.64;95.10;100967.03;4979574;28;45713;-66
2022/01/07 03:36:46;;;;;;;;;0.75;0.50;;;;;5.61;95.54;100972.28;4979997;28;45315;-66
2022/01/07 03:39:12;;;;;;;;;6.00;6.00;;;;;5.68;95.47;100978.38;4978310;28;46708;-67
2022/01/07 03:41:37;;;;;;;;;8.50;7.75;;;;;5.67;95.77;100987.09;4979643;28;45307;-67
2022/01/07 03:44:03;;;;;;;;;7.75;6.00;;;;;5.65;95.75;100971.41;4979611;28;45267;-67
2022/01/07 03:46:28;;;;;;;;;5.75;5.75;;;;;5.65;95.90;100983.56;4978620;28;45382;-67
2022/01/07 03:48:54;;;;;;;;;8.75;5.50;;;;;5.69;95.08;100985.31;4979073;28;46214;-67
2022/01/07 03:51:19;;;;;;;;;7.25;5.50;;;;;5.69;95.83;100986.22;4979496;28;45220;-67
2022/01/07 03:53:45;;;;;;;;;6.50;4.00;;;;;5.68;95.62;100991.44;4979493;28;45249;-67
2022/01/07 03:56:17;;;;;;;;;7.25;5.75;;;;;5.67;95.87;100987.09;4979737;28;45235;-67
2022/01/07 03:58:43;;;;;;;;;4.75;4.75;;;;;5.74;96.10;100991.44;4979381;28;46655;-67
2022/01/07 04:01:08;;;;;;;;;4.50;3.50;;;;;5.71;96.16;100981.00;4979044;28;45332;-67
2022/01/07 04:03:33;;;;;;;;;6.50;4.25;;;;;5.73;96.22;100969.66;4979120;28;45463;-66
2022/01/07 04:05:59;;;;;;;;;6.00;4.00;;;;;5.79;96.48;100975.75;4979571;28;45237;-67
2022/01/07 04:08:24;;;;;;;;;6.50;6.00;;;;;5.73;96.53;100972.25;4979114;28;46366;-67
2022/01/07 04:10:49;;;;;;;;;6.00;6.00;;;;;5.81;96.22;100982.75;4979215;28;45339;-67
2022/01/07 04:13:15;;;;;;;;;9.50;8.75;;;;;5.78;96.23;100979.25;4979100;28;45371;-66
2022/01/07 04:15:40;;;;;;;;;5.75;5.75;;;;;5.81;96.27;100980.13;4979469;28;45213;-66
2022/01/07 04:18:06;;;;;;;;;10.75;5.00;;;;;5.83;96.58;100978.38;4979152;28;45685;-66
2022/01/07 04:20:33;;;;;;;;;4.00;4.00;;;;;5.85;96.28;100973.16;4978806;28;45324;-66
2022/01/07 04:23:00;;;;;;;;;4.25;4.25;;;;;5.87;96.51;100968.81;4979231;28;45434;-66
2022/01/07 04:25:26;;;;;;;;;5.50;5.50;;;;;5.84;96.57;100963.56;4979141;28;45436;-66
2022/01/07 04:27:56;;;;;;;;;7.00;4.00;;;;;5.85;96.76;100974.03;4978580;28;45462;-66
2022/01/07 04:30:23;;;;;;;;;7.00;4.00;;;;;5.85;96.63;100960.97;4978730;28;45207;-66
2022/01/07 04:32:49;;;;;;;;;7.00;7.00;;;;;5.84;96.62;100956.59;4978716;28;45904;-66
2022/01/07 04:35:17;;;;;;;;;9.50;6.00;;;;;5.87;96.20;100966.19;4978785;28;45507;-66
2022/01/07 04:37:42;;;;;;;;;14.33;13.00;;;;;5.82;96.96;100945.28;4978701;28;45504;-66
2022/01/07 04:40:11;;;;;;;;;6.00;6.00;;;;;5.84;97.06;100951.38;4978656;28;45483;-66
2022/01/07 04:42:37;;;;;;;;;6.25;4.00;;;;;5.78;97.17;100942.66;4978744;28;45269;-67
2022/01/07 04:45:05;;;;;;;;;6.25;6.00;;;;;5.81;97.58;100948.78;4978765;28;45154;-67
2022/01/07 04:47:31;;;;;;;;;4.00;3.00;;;;;5.82;97.63;100947.03;4978388;28;47679;-67
2022/01/07 04:49:57;;;;;;;;;6.50;6.00;;;;;5.81;97.86;100945.28;4978173;28;45382;-66
2022/01/07 04:52:22;;;;;;;;;8.75;6.25;;;;;5.75;98.07;100933.97;4967444;28;45482;-66
2022/01/07 04:54:48;;;;;;;;;13.50;6.00;;;;;5.71;97.91;100916.53;4969810;28;45563;-66
2022/01/07 04:57:13;;;;;;;;;8.50;4.75;;;;;5.55;98.44;100886.06;4958876;28;46159;-67
2022/01/07 04:59:38;;;;;;;;;6.50;4.00;;;;;5.65;99.00;100908.72;4958987;28;45400;-66
2022/01/07 05:02:04;;;;;;;;;4.00;4.00;;;;;5.62;98.76;100919.16;4959167;28;45234;-66
2022/01/07 05:04:29;;;;;;;;;7.00;7.00;;;;;5.70;99.21;100927.00;4959118;28;45241;-66
2022/01/07 05:06:55;;;;;;;;;6.00;6.00;;;;;5.69;99.22;100928.75;4958991;28;45458;-66
2022/01/07 05:09:20;;;;;;;;;3.00;3.00;;;;;5.70;99.59;100921.78;4958875;28;45690;-66
2022/01/07 05:11:52;;;;;;;;;6.50;3.75;;;;;5.66;99.43;100935.69;4958936;28;45301;-66
2022/01/07 05:14:19;;;;;;;;;7.50;6.50;;;;;5.57;99.88;100926.97;4958569;28;45439;-66
2022/01/07 05:16:45;;;;;;;;;7.25;6.25;;;;;5.57;99.93;100941.78;4958476;28;45316;-66
2022/01/07 05:19:11;;;;;;;;;7.00;7.00;;;;;5.58;100.00;100941.78;4958514;28;45257;-67
2022/01/07 05:21:38;;;;;;;;;7.00;5.25;;;;;5.58;100.00;100931.34;4958719;28;45282;-67
2022/01/07 05:24:04;;;;;;;;;7.25;6.00;;;;;5.53;100.00;100935.69;4958953;28;45325;-67
2022/01/07 05:26:30;;;;;;;;;10.25;6.50;;;;;5.60;100.00;100941.78;4958478;28;46603;-67
2022/01/07 05:28:55;;;;;;;;;8.25;7.25;;;;;5.53;100.00;100940.94;4958542;28;45308;-66
2022/01/07 05:31:25;;;;;;;;;8.25;7.00;;;;;5.56;100.00;100940.03;4958596;28;45435;-66
2022/01/07 05:33:52;;;;;;;;;10.00;8.00;;;;;5.64;99.82;100958.34;4958485;28;45444;-66
2022/01/07 05:36:18;;;;;;;;;8.75;6.00;;;;;5.67;99.69;100964.44;4958274;28;46858;-66
2022/01/07 05:38:45;;;;;;;;;5.50;5.50;;;;;5.65;99.97;100960.06;4958218;28;45435;-66
2022/01/07 05:41:10;;;;;;;;;6.00;6.00;;;;;5.59;99.81;100947.88;4958686;28;45344;-66
2022/01/07 05:43:36;;;;;;;;;4.00;4.00;;;;;5.63;100.00;100960.06;4958524;28;45495;-66
2022/01/07 05:46:01;;;;;;;;;7.25;6.00;;;;;5.65;100.00;100955.72;4958517;28;46308;-66
2022/01/07 05:48:26;;;;;;;;;6.00;6.00;;;;;5.69;100.00;100953.97;4958122;28;45316;-66
2022/01/07 05:50:52;;;;;;;;;7.50;5.75;;;;;5.68;100.00;100958.34;4958245;28;45396;-66
2022/01/07 05:53:17;;;;;;;;;4.00;4.00;;;;;5.69;100.00;100948.75;4958502;28;45489;-66
2022/01/07 05:55:43;;;;;;;;;8.25;5.25;;;;;5.66;100.00;100943.53;4958107;28;45384;-67
2022/01/07 05:58:08;;;;;;;;;6.00;4.50;;;;;5.77;100.00;100967.06;4958333;28;45341;-66
2022/01/07 06:00:34;;;;;;;;;2.75;2.75;;;;;5.78;100.00;100976.63;4958256;28;45318;-67
2022/01/07 06:02:59;;;;;;;;;2.25;2.25;;;;;5.75;100.00;100973.16;4958660;28;45270;-67
2022/01/07 06:05:25;;;;;;;;;4.50;4.00;;;;;5.82;100.00;100987.06;4957882;28;46196;-66
2022/01/07 06:07:50;;;;;;;;;3.75;3.00;;;;;5.84;100.00;100979.22;4958086;28;45778;-67
2022/01/07 06:10:16;;;;;;;;;4.75;4.75;;;;;5.90;100.00;100987.09;4958082;28;45412;-67
2022/01/07 06:12:41;;;;;;;;;4.00;3.00;;;;;5.84;99.74;100961.84;4958351;28;45304;-67
2022/01/07 06:15:07;;;;;;;;;6.50;6.50;;;;;5.97;99.78;100978.44;4958014;28;46393;-67
2022/01/07 06:17:33;;;;;;;;;2.75;1.25;;;;;6.05;98.61;100931.38;4957878;28;45372;-67
2022/01/07 06:19:58;;;;;;;;;3.00;3.00;;;;;6.05;99.45;100932.22;4957954;28;45313;-67
2022/01/07 06:22:24;;;;;;;;;3.75;2.50;;;;;5.88;99.74;100920.88;4958098;28;45530;-67
2022/01/07 06:24:49;;;;;;;;;8.50;6.00;;;;;5.97;99.88;100939.22;4958312;28;46466;-67
2022/01/07 06:27:15;;;;;;;;;3.00;3.00;;;;;6.00;100.00;100943.56;4961282;28;45371;-67
2022/01/07 06:29:40;;;;;;;;;3.25;2.00;;;;;5.95;100.00;100934.81;4961341;28;45348;-67
2022/01/07 06:32:06;;;;;;;;;5.50;4.00;;;;;5.95;100.00;100935.69;4961136;28;45724;-67
2022/01/07 06:34:32;;;;;;;;;2.25;2.00;;;;;5.96;100.00;100937.44;4960934;28;46348;-67
2022/01/07 06:36:59;;;;;;;;;3.50;1.75;;;;;6.00;100.00;100949.66;4960908;28;45371;-67
2022/01/07 06:39:24;;;;;;;;;3.00;2.50;;;;;5.96;100.00;100936.56;4961216;28;45736;-66
2022/01/07 06:41:51;;;;;;;;;2.75;1.75;;;;;5.90;100.00;100933.09;4961324;28;45177;-66
2022/01/07 06:44:17;;;;;;;;;3.00;1.50;;;;;5.92;100.00;100953.97;4960919;28;45559;-66
2022/01/07 06:46:43;;;;;;;;;2.75;2.00;;;;;5.97;100.00;100962.75;4961085;28;45413;-67
2022/01/07 06:49:08;;;;;;;;;3.00;3.00;;;;;5.94;100.00;100939.19;4960952;28;45162;-67
2022/01/07 06:51:34;;;;;;;;;1.75;1.75;;;;;6.00;100.00;100935.72;4961187;28;45543;-67
2022/01/07 06:54:00;;;;;;;;;2.00;2.00;;;;;6.04;100.00;100947.91;4960695;28;46321;-67
2022/01/07 06:56:27;;;;;;;;;2.50;1.75;;;;;5.99;100.00;100937.47;4960702;28;45463;-67
2022/01/07 06:58:53;;;;;;;;;3.75;3.75;;;;;5.97;100.00;100941.84;4960911;28;45343;-67
2022/01/07 07:01:19;;;;;;;;;3.00;1.00;;;;;5.98;100.00;100932.25;4960525;28;45299;-67
2022/01/07 07:03:45;;;;;;;;;2.00;2.00;;;;;5.92;100.00;100933.06;4960703;28;46137;-67
2022/01/07 07:06:12;;;;;;;;;4.00;1.50;;;;;5.95;100.00;100945.28;4960647;28;45475;-67
2022/01/07 07:08:37;;;;;;;;;1.00;1.00;;;;;5.82;100.00;100923.50;4960630;28;45241;-67
2022/01/07 07:11:02;;;;;;;;;1.75;1.00;;;;;5.96;100.00;100936.56;4960938;28;45378;-67
2022/01/07 07:13:28;;;;;;;;;7.00;4.67;;;;;5.88;100.00;100929.63;4960204;28;46718;-67
2022/01/07 07:15:54;;;;;;;;;7.00;3.75;;;;;5.86;100.00;100928.72;4960529;28;45494;-67
2022/01/07 07:18:19;;;;;;;;;0.00;0.00;;;;;5.84;100.00;100930.47;4960790;28;45364;-67
2022/01/07 07:20:44;;;;;;;;;3.50;2.00;;;;;5.94;100.00;100949.66;4960450;28;45252;-66
2022/01/07 07:23:10;;;;;;;;;3.00;1.50;;;;;5.93;99.62;100948.75;4960240;28;46686;-65
2022/01/07 07:25:35;;;;;;;;;3.25;2.00;;;;;5.95;99.79;100942.66;4960233;28;45399;-65
2022/01/07 07:28:01;;;;;;;;;3.25;3.25;;;;;5.88;99.41;100923.50;4960202;28;45496;-65
2022/01/07 07:30:34;;;;;;;;;2.00;1.75;;;;;5.91;99.50;100928.72;4960482;28;45271;-66
2022/01/07 07:33:10;;;;;;;;;11.33;9.00;;;;;5.82;99.27;100908.69;4959760;28;46485;-66
2022/01/07 07:38:12;;;;;;;;;5.50;3.00;;;;;5.90;98.07;100937.44;4960179;28;45411;-66
2022/01/07 07:40:38;;;;;;;;;3.00;1.50;;;;;5.87;97.88;100937.47;4960282;28;45540;-66
2022/01/07 07:43:03;;;;;;;;;3.25;1.75;;;;;5.89;97.97;100938.31;4959969;28;45450;-66
2022/01/07 07:45:29;;;;;;;;;1.00;1.00;;;;;5.79;97.70;100919.16;4963656;28;45332;-67
2022/01/07 07:47:54;;;;;;;;;8.25;2.00;;;;;5.82;97.53;100929.59;4976107;28;45439;-67
2022/01/07 07:50:20;;;;;;;;;1.25;1.25;;;;;5.78;97.49;100924.38;4979577;28;45350;-67
2022/01/07 07:52:45;;;;;;;;;6.00;4.00;;;;;5.80;97.77;100952.25;4978710;28;46295;-68
2022/01/07 07:55:11;;;;;;;;;1.50;1.50;;;;;5.79;97.88;100953.13;4979109;28;45177;-68
2022/01/07 07:57:36;;;;;;;;;5.00;2.00;;;;;5.72;98.40;100943.53;4979295;28;45418;-70
2022/01/07 08:00:04;;;;;;;;;2.00;2.00;;;;;5.70;98.78;100950.50;4994258;28;45542;-67
2022/01/07 08:02:30;;;;;;;;;2.50;2.50;;;;;5.69;99.12;100948.75;4979059;28;46571;-67
2022/01/07 08:04:56;;;;;;;;;6.75;4.00;;;;;5.68;99.40;100953.13;4979018;28;45456;-67
2022/01/07 08:07:21;;;;;;;;;8.00;6.00;;;;;5.62;99.43;100940.06;4978825;28;45402;-67
2022/01/07 08:09:49;;;;;;;;;4.75;4.75;;;;;5.62;99.74;100939.16;4979288;28;45435;-68
2022/01/07 08:12:22;;;;;;;;;6.67;4.00;;;;;5.47;100.00;100920.00;4978681;28;46427;-67
2022/01/07 08:17:32;;;;;;;;;5.50;5.25;;;;;5.68;99.94;100936.59;4978468;28;45803;-67
2022/01/07 08:19:58;;;;;;;;;7.25;5.75;;;;;5.69;100.00;100941.81;4978809;28;45354;-67
2022/01/07 08:22:23;;;;;;;;;60.00;50.33;;;;;5.68;99.68;100937.44;4977070;28;45425;-67
2022/01/07 08:24:48;;;;;;;;;22.67;19.67;;;;;5.72;99.58;100936.59;4978813;28;45326;-67
2022/01/07 08:27:14;;;;;;;;;10.00;9.00;;;;;5.76;98.84;100932.22;4978037;28;45336;-67
2022/01/07 08:29:42;;;;;;;;;12.33;9.00;;;;;5.75;99.05;100930.47;4978689;28;45170;-67
2022/01/07 08:34:54;;;;;;;;;7.00;7.00;;;;;5.74;98.71;100939.19;4978047;28;45230;-67
2022/01/07 08:37:27;;;;;;;;;10.00;6.33;;;;;5.73;98.85;100943.53;4977169;28;45513;-66
2022/01/07 08:39:55;;;;;;;;;10.33;8.67;;;;;5.69;99.00;100933.09;4977512;28;45385;-67
2022/01/07 08:42:22;;;;;;;;;7.75;7.75;;;;;5.50;99.07;100893.88;4977637;28;45665;-67
2022/01/07 08:44:47;;;;;;;;;7.00;7.00;;;;;5.70;99.11;100932.22;4977707;28;45746;-67
2022/01/07 08:47:13;;;;;;;;;12.33;10.00;;;;;5.73;98.99;100940.06;4977755;28;45379;-67
2022/01/07 08:49:38;;;;;;;;;9.00;9.00;;;;;5.67;98.63;100916.56;4978323;28;45775;-67
2022/01/07 08:52:04;;;;;;;;;7.00;4.33;;;;;5.72;98.84;100927.84;4978010;28;46138;-67
2022/01/07 08:54:29;;;;;;;;;13.33;12.00;;;;;5.79;99.05;100931.34;4978169;28;45449;-67
2022/01/07 08:56:55;;;;;;;;;7.00;5.50;;;;;5.80;98.35;100933.97;4978306;28;45595;-67
2022/01/07 08:59:21;;;;;;;;;10.25;8.75;;;;;5.77;97.78;100918.28;4978232;28;45510;-67
2022/01/07 09:01:46;;;;;;;;;9.00;7.75;;;;;5.91;97.80;100931.31;4977521;28;45561;-67
2022/01/07 09:04:12;;;;;;;;;12.50;8.00;;;;;5.99;97.30;100928.75;4977591;28;45444;-66
2022/01/07 09:06:37;;;;;;;;;9.50;6.50;;;;;5.96;96.58;100913.06;4978225;28;45340;-67
2022/01/07 09:09:03;;;;;;;;;9.50;5.75;;;;;6.08;96.27;100929.63;4978008;28;45573;-67
2022/01/07 09:11:28;;;;;;;;;7.75;7.75;;;;;6.13;96.20;100931.34;4977859;28;46059;-67
2022/01/07 09:13:58;;;;;;;;;11.00;7.75;;;;;6.14;96.02;100933.09;4977744;28;45332;-67
2022/01/07 09:16:24;;;;;;;;;6.50;6.50;;;;;6.16;96.26;100947.91;4977816;28;45435;-67
2022/01/07 09:18:49;;;;;;;;;8.50;6.25;;;;;6.19;96.09;100945.28;4978050;28;45359;-67
2022/01/07 09:21:15;;;;;;;;;7.00;4.50;;;;;6.16;95.99;100927.00;4977448;28;46400;-67
2022/01/07 09:23:41;;;;;;;;;7.75;7.75;;;;;6.16;96.01;100940.06;4977077;28;45615;-67
2022/01/07 09:26:08;;;;;;;;;5.50;5.50;;;;;6.01;96.48;100925.28;4977646;28;45418;-66
2022/01/07 09:28:33;;;;;;;;;7.33;5.00;;;;;6.10;97.17;100932.25;4977674;28;45304;-67
2022/01/07 09:30:59;;;;;;;;;6.50;4.00;;;;;6.11;98.02;100947.03;4977438;28;45462;-67
2022/01/07 09:33:24;;;;;;;;;4.00;4.00;;;;;6.08;98.13;100937.47;4977253;28;45488;-67
2022/01/07 09:35:51;;;;;;;;;2.50;2.50;;;;;6.17;98.73;100918.28;4977707;28;45355;-67
2022/01/07 09:38:16;;;;;;;;;2.25;2.25;;;;;6.21;98.77;100922.63;4977887;28;45515;-67
2022/01/07 09:40:42;;;;;;;;;4.25;3.00;;;;;6.06;98.82;100892.16;4977346;28;46411;-67
2022/01/07 09:43:08;;;;;;;;;2.25;1.75;;;;;6.38;98.89;100943.50;4977803;28;45355;-67
2022/01/07 09:45:35;;;;;;;;;7.25;3.00;;;;;6.44;98.51;100958.31;4977094;28;45407;-67
2022/01/07 09:48:01;;;;;;;;;3.00;2.50;;;;;6.44;97.57;100950.47;4977858;28;45224;-67
2022/01/07 09:50:28;;;;;;;;;0.25;0.25;;;;;6.43;97.50;100935.66;4977281;28;46923;-67
2022/01/07 09:52:53;;;;;;;;;4.50;2.75;;;;;6.50;96.01;100944.34;4976956;28;45493;-68
2022/01/07 09:55:19;;;;;;;;;4.25;2.00;;;;;6.51;96.26;100948.72;4977550;28;45645;-68
2022/01/07 09:57:45;;;;;;;;;3.50;2.75;;;;;6.51;95.80;100957.44;4977487;28;45514;-68
2022/01/07 10:00:11;;;;;;;;;4.50;2.25;;;;;6.50;95.77;100952.19;4979977;28;45553;-67
2022/01/07 10:02:36;;;;;;;;;2.00;1.00;;;;;6.42;95.64;100936.53;4980599;28;45342;-75
2022/01/07 10:05:18;;;;;;;;;5.00;2.00;;;;;6.53;95.32;100952.19;4980683;28;45965;-67
2022/01/07 10:07:44;;;;;;;;;7.25;3.75;;;;;6.54;94.14;100952.19;4980302;28;45331;-70
2022/01/07 10:10:17;;;;;;;;;3.00;2.00;;;;;6.48;94.74;100946.09;4980691;28;46587;-68
2022/01/07 10:12:48;;;;;;;;;3.75;2.25;;;;;6.54;93.98;100943.47;4980625;28;45353;-67
2022/01/07 10:15:16;;;;;;;;;3.00;0.00;;;;;6.55;94.14;100937.34;4980710;28;45391;-67
2022/01/07 10:17:57;;;;;;;;;4.50;2.50;;;;;6.56;93.82;100933.88;4980771;28;45470;-67
2022/01/07 10:20:29;;;;;;;;;1.25;1.00;;;;;6.48;93.93;100912.09;4980415;28;46104;-67
2022/01/07 10:23:00;;;;;;;;;4.00;1.00;;;;;6.58;93.26;100929.53;4980088;28;45353;-64
2022/01/07 10:25:31;;;;;;;;;1.75;1.75;;;;;6.61;93.79;100927.75;4980664;28;45460;-67
2022/01/07 10:28:03;;;;;;;;;2.50;1.00;;;;;6.64;92.85;100916.41;4980647;28;45442;-69
2022/01/07 10:30:34;;;;;;;;;1.50;0.75;;;;;6.65;93.25;100915.53;4980068;28;46497;-71
2022/01/07 10:33:00;;;;;;;;;2.00;1.00;;;;;6.63;92.29;100902.44;4980071;28;45403;-73
2022/01/07 10:35:27;;;;;;;;;3.00;1.00;;;;;6.71;92.30;100915.50;4980747;28;45586;-73
2022/01/07 10:37:59;;;;;;;;;2.75;1.00;;;;;6.73;91.47;100910.25;4980258;28;45563;-72
2022/01/07 10:40:29;;;;;;;;;2.00;0.75;;;;;6.69;90.65;100917.25;4980091;28;46485;-70
2022/01/07 10:43:07;;;;;;;;;0.00;0.00;;;;;6.65;90.80;100923.38;4980285;28;45376;-71
2022/01/07 10:45:33;;;;;;;;;2.00;1.00;;;;;6.60;90.71;100912.06;4980317;28;45400;-70
2022/01/07 10:47:58;;;;;;;;;2.00;2.00;;;;;6.58;91.11;100911.19;4980205;28;45397;-72
2022/01/07 10:50:24;;;;;;;;;1.00;1.00;;;;;6.56;91.15;100913.78;4980223;28;45573;-69
2022/01/07 10:52:51;;;;;;;;;4.50;4.50;;;;;6.47;90.87;100907.75;4979973;28;45434;-69
2022/01/07 10:55:19;;;;;;;;;3.75;2.00;;;;;6.59;90.65;100912.91;4980208;28;45391;-68
2022/01/07 10:57:50;;;;;;;;;1.00;1.00;;;;;6.54;90.90;100915.56;4980126;28;45380;-68
2022/01/07 11:00:18;;;;;;;;;1.00;1.00;;;;;6.50;91.84;100924.28;4979829;28;46139;-67
2022/01/07 11:02:44;;;;;;;;;4.75;2.00;;;;;6.42;92.47;100911.25;4980000;28;45343;-67
2022/01/07 11:05:10;;;;;;;;;0.00;0.00;;;;;6.40;92.61;100905.13;4980067;28;45378;-71
2022/01/07 11:07:36;;;;;;;;;2.75;1.00;;;;;6.57;91.07;100931.25;4980077;28;45363;-69
2022/01/07 11:10:04;;;;;;;;;2.75;1.50;;;;;6.54;91.35;100926.03;4979765;28;46555;-69
2022/01/07 11:12:30;;;;;;;;;1.25;1.00;;;;;6.51;91.55;100923.41;4979179;28;45394;-70
2022/01/07 11:14:57;;;;;;;;;3.25;0.00;;;;;6.51;91.72;100922.56;4980111;28;45298;-69
2022/01/07 11:17:23;;;;;;;;;1.25;1.25;;;;;6.44;91.06;100908.63;4980204;28;45223;-70
2022/01/07 11:19:56;;;;;;;;;2.00;0.00;;;;;6.41;91.34;100909.50;4979559;28;46577;-70
2022/01/07 11:22:22;;;;;;;;;2.00;0.25;;;;;6.53;91.21;100913.81;4979613;28;45669;-70
2022/01/07 11:24:54;;;;;;;;;2.50;1.00;;;;;6.32;90.72;100870.31;4979778;28;45195;-70
2022/01/07 11:27:27;;;;;;;;;3.75;0.00;;;;;6.38;90.14;100857.19;4979832;28;45339;-69
2022/01/07 11:30:15;;;;;;;;;0.25;0.25;;;;;6.54;89.45;100901.63;4979584;28;45451;-70
2022/01/07 11:32:44;;;;;;;;;2.50;1.00;;;;;6.62;87.67;100915.53;4979288;28;45461;-70
2022/01/07 11:35:23;;;;;;;;;1.00;1.00;;;;;6.55;88.30;100916.41;4979808;28;45417;-70
2022/01/07 11:37:55;;;;;;;;;1.00;0.25;;;;;6.55;88.56;100919.03;4979555;28;45522;-70